createdAt,value
2022-09-12T00:00:01.548Z,14.07
2022-09-12T00:01:04.344Z,14.07
2022-09-12T00:02:05.047Z,14.06
2022-09-12T00:03:06.727Z,14.06
2022-09-12T00:04:08.456Z,14.04
2022-09-12T00:05:10.198Z,14.03
2022-09-12T00:06:11.906Z,14.01
2022-09-12T00:07:13.627Z,14.01
2022-09-12T00:08:15.374Z,14
2022-09-12T00:09:17.102Z,13.99
2022-09-12T00:10:18.809Z,13.99
2022-09-12T00:11:20.546Z,13.98
2022-09-12T00:12:22.306Z,13.96
2022-09-12T00:13:23.997Z,13.95
2022-09-12T00:14:25.704Z,13.93
2022-09-12T00:15:27.438Z,13.92
2022-09-12T00:16:29.225Z,13.9
2022-09-12T00:17:30.911Z,13.89
2022-09-12T00:18:32.597Z,13.87
2022-09-12T00:19:34.335Z,13.86
2022-09-12T00:20:36.073Z,13.85
2022-09-12T00:21:37.790Z,13.83
2022-09-12T00:22:39.553Z,13.82
2022-09-12T00:23:41.239Z,13.81
2022-09-12T00:24:42.964Z,13.8
2022-09-12T00:25:44.683Z,13.79
2022-09-12T00:26:46.416Z,13.79
2022-09-12T00:27:48.156Z,13.78
2022-09-12T00:28:49.871Z,13.77
2022-09-12T00:29:51.591Z,13.76
2022-09-12T00:30:53.311Z,13.74
2022-09-12T00:31:55.078Z,13.74
2022-09-12T00:32:56.787Z,13.72
2022-09-12T00:33:58.485Z,13.71
2022-09-12T00:35:00.240Z,13.71
2022-09-12T00:36:04.986Z,13.7
2022-09-12T00:37:03.666Z,13.69
2022-09-12T00:38:05.404Z,13.68
2022-09-12T00:39:07.120Z,13.68
2022-09-12T00:40:08.897Z,13.67
2022-09-12T00:41:10.581Z,13.67
2022-09-12T00:42:12.327Z,13.66
2022-09-12T00:43:14.041Z,13.67
2022-09-12T00:44:15.754Z,13.66
2022-09-12T00:45:17.481Z,13.66
2022-09-12T00:46:19.192Z,13.66
2022-09-12T00:47:20.957Z,13.65
2022-09-12T00:48:22.659Z,13.65
2022-09-12T00:49:24.409Z,13.65
2022-09-12T00:50:26.098Z,13.65
2022-09-12T00:51:27.818Z,13.64
2022-09-12T00:52:29.569Z,13.64
2022-09-12T00:53:31.285Z,13.63
2022-09-12T00:54:33.002Z,13.62
2022-09-12T00:55:34.726Z,13.63
2022-09-12T00:56:36.457Z,13.62
2022-09-12T00:57:38.211Z,13.61
2022-09-12T00:58:39.908Z,13.6
2022-09-12T00:59:41.635Z,13.6
2022-09-12T01:00:43.456Z,13.61
2022-09-12T01:01:45.225Z,13.61
2022-09-12T01:02:46.832Z,13.61
2022-09-12T01:03:48.538Z,13.6
2022-09-12T01:04:50.270Z,13.61
2022-09-12T01:05:52.016Z,13.6
2022-09-12T01:06:53.704Z,13.6
2022-09-12T01:07:55.432Z,13.59
2022-09-12T01:08:57.161Z,13.6
2022-09-12T01:09:58.903Z,13.59
2022-09-12T01:11:00.632Z,13.58
2022-09-12T01:12:02.370Z,13.58
2022-09-12T01:13:04.103Z,13.58
2022-09-12T01:14:05.830Z,13.57
2022-09-12T01:15:07.565Z,13.57
2022-09-12T01:16:09.389Z,13.57
2022-09-12T01:17:11.092Z,13.58
2022-09-12T01:18:12.770Z,13.58
2022-09-12T01:19:14.493Z,13.59
2022-09-12T01:20:16.243Z,13.6
2022-09-12T01:21:17.999Z,13.6
2022-09-12T01:22:19.714Z,13.62
2022-09-12T01:23:21.446Z,13.63
2022-09-12T01:24:23.163Z,13.64
2022-09-12T01:25:24.924Z,13.66
2022-09-12T01:26:26.655Z,13.67
2022-09-12T01:27:28.371Z,13.69
2022-09-12T01:28:30.145Z,13.69
2022-09-12T01:29:31.850Z,13.71
2022-09-12T01:30:33.581Z,13.71
2022-09-12T01:31:35.336Z,13.73
2022-09-12T01:32:37.061Z,13.74
2022-09-12T01:33:38.812Z,13.73
2022-09-12T01:34:40.528Z,13.75
2022-09-12T01:35:42.260Z,13.76
2022-09-12T01:36:44.008Z,13.77
2022-09-12T01:37:45.723Z,13.78
2022-09-12T01:38:47.499Z,13.77
2022-09-12T01:39:49.220Z,13.77
2022-09-12T01:40:50.924Z,13.77
2022-09-12T01:41:52.693Z,13.78
2022-09-12T01:42:54.457Z,13.78
2022-09-12T01:43:56.133Z,13.76
2022-09-12T01:44:57.865Z,13.75
2022-09-12T01:45:59.649Z,13.75
2022-09-12T01:47:01.357Z,13.73
2022-09-12T01:48:03.078Z,13.7
2022-09-12T01:49:04.817Z,13.68
2022-09-12T01:50:06.531Z,13.64
2022-09-12T01:51:08.285Z,13.6
2022-09-12T01:52:10.024Z,13.55
2022-09-12T01:53:11.757Z,13.5
2022-09-12T01:54:13.474Z,13.44
2022-09-12T01:55:15.301Z,13.38
2022-09-12T01:56:16.940Z,13.33
2022-09-12T01:57:18.705Z,13.29
2022-09-12T01:58:20.448Z,13.24
2022-09-12T01:59:22.166Z,13.2
2022-09-12T02:00:23.938Z,13.16
2022-09-12T02:01:25.676Z,13.13
2022-09-12T02:02:27.415Z,13.09
2022-09-12T02:03:29.123Z,13.06
2022-09-12T02:04:34.113Z,13.03
2022-09-12T02:05:32.599Z,13
2022-09-12T02:06:34.300Z,12.97
2022-09-12T02:07:36.044Z,12.94
2022-09-12T02:08:37.771Z,12.92
2022-09-12T02:09:39.489Z,12.89
2022-09-12T02:10:41.234Z,12.86
2022-09-12T02:11:42.964Z,12.84
2022-09-12T02:12:44.713Z,12.82
2022-09-12T02:13:46.421Z,12.79
2022-09-12T02:14:48.171Z,12.77
2022-09-12T02:15:49.921Z,12.75
2022-09-12T02:16:51.631Z,12.72
2022-09-12T02:17:53.384Z,12.71
2022-09-12T02:18:55.093Z,12.69
2022-09-12T02:19:56.840Z,12.68
2022-09-12T02:20:58.563Z,12.66
2022-09-12T02:22:00.307Z,12.65
2022-09-12T02:23:02.068Z,12.64
2022-09-12T02:24:03.768Z,12.64
2022-09-12T02:25:05.509Z,12.62
2022-09-12T02:26:07.248Z,12.62
2022-09-12T02:27:08.985Z,12.61
2022-09-12T02:28:10.742Z,12.61
2022-09-12T02:29:12.455Z,12.61
2022-09-12T02:30:14.188Z,12.62
2022-09-12T02:31:15.930Z,12.63
2022-09-12T02:32:17.707Z,12.65
2022-09-12T02:33:19.442Z,12.67
2022-09-12T02:34:21.118Z,12.69
2022-09-12T02:35:22.881Z,12.69
2022-09-12T02:36:24.594Z,12.7
2022-09-12T02:37:26.364Z,12.7
2022-09-12T02:38:28.066Z,12.7
2022-09-12T02:39:29.825Z,12.71
2022-09-12T02:40:31.601Z,12.72
2022-09-12T02:41:33.284Z,12.74
2022-09-12T02:42:35.041Z,12.75
2022-09-12T02:43:36.781Z,12.77
2022-09-12T02:44:38.504Z,12.79
2022-09-12T02:45:40.253Z,12.8
2022-09-12T02:46:41.941Z,12.81
2022-09-12T02:47:43.707Z,12.83
2022-09-12T02:48:45.534Z,12.84
2022-09-12T02:49:47.164Z,12.86
2022-09-12T02:50:48.880Z,12.88
2022-09-12T02:51:50.651Z,12.9
2022-09-12T02:52:52.379Z,12.91
2022-09-12T02:53:54.104Z,12.92
2022-09-12T02:54:55.849Z,12.93
2022-09-12T02:55:57.561Z,12.94
2022-09-12T02:56:59.294Z,12.95
2022-09-12T02:58:01.048Z,12.94
2022-09-12T02:59:02.801Z,12.94
2022-09-12T03:00:04.529Z,12.94
2022-09-12T03:01:06.292Z,12.94
2022-09-12T03:02:08.047Z,12.94
2022-09-12T03:03:09.720Z,12.94
2022-09-12T03:04:11.460Z,12.96
2022-09-12T03:05:13.163Z,12.96
2022-09-12T03:06:14.907Z,12.96
2022-09-12T03:07:16.661Z,12.96
2022-09-12T03:08:18.367Z,12.97
2022-09-12T03:09:20.135Z,12.96
2022-09-12T03:10:21.839Z,12.97
2022-09-12T03:11:23.575Z,12.96
2022-09-12T03:12:25.323Z,12.96
2022-09-12T03:13:27.025Z,12.96
2022-09-12T03:14:28.771Z,12.96
2022-09-12T03:15:30.504Z,12.97
2022-09-12T03:16:32.294Z,12.97
2022-09-12T03:17:34.011Z,12.97
2022-09-12T03:18:35.759Z,12.97
2022-09-12T03:19:37.456Z,12.97
2022-09-12T03:20:39.208Z,12.97
2022-09-12T03:21:40.930Z,12.97
2022-09-12T03:22:42.674Z,12.97
2022-09-12T03:23:44.384Z,12.97
2022-09-12T03:24:46.120Z,12.97
2022-09-12T03:25:47.861Z,12.96
2022-09-12T03:26:49.590Z,12.96
2022-09-12T03:27:51.338Z,12.96
2022-09-12T03:28:53.076Z,12.95
2022-09-12T03:29:54.802Z,12.95
2022-09-12T03:30:56.771Z,12.95
2022-09-12T03:31:58.263Z,12.95
2022-09-12T03:33:00.028Z,12.94
2022-09-12T03:34:01.730Z,12.96
2022-09-12T03:35:03.465Z,12.96
2022-09-12T03:36:05.233Z,12.97
2022-09-12T03:37:06.939Z,12.97
2022-09-12T03:38:08.687Z,12.98
2022-09-12T03:39:10.413Z,12.99
2022-09-12T03:40:12.181Z,12.99
2022-09-12T03:41:13.882Z,13
2022-09-12T03:42:15.627Z,13.01
2022-09-12T03:43:17.364Z,13.02
2022-09-12T03:44:19.082Z,13.02
2022-09-12T03:45:20.844Z,13.03
2022-09-12T03:46:22.543Z,13.04
2022-09-12T03:47:24.298Z,13.04
2022-09-12T03:48:26.021Z,13.04
2022-09-12T03:49:27.753Z,13.05
2022-09-12T03:50:29.494Z,13.04
2022-09-12T03:51:31.233Z,13.06
2022-09-12T03:52:32.990Z,13.05
2022-09-12T03:53:34.697Z,13.05
2022-09-12T03:54:36.438Z,13.05
2022-09-12T03:55:38.155Z,13.04
2022-09-12T03:56:39.898Z,13.05
2022-09-12T03:57:41.655Z,13.05
2022-09-12T03:58:43.423Z,13.04
2022-09-12T03:59:45.107Z,13.04
2022-09-12T04:00:46.896Z,13.04
2022-09-12T04:01:48.572Z,13.04
2022-09-12T04:02:50.334Z,13.03
2022-09-12T04:03:52.044Z,13.03
2022-09-12T04:04:53.779Z,13.02
2022-09-12T04:05:55.506Z,13.02
2022-09-12T04:06:57.248Z,13.01
2022-09-12T04:07:59.009Z,13.01
2022-09-12T04:09:00.717Z,13
2022-09-12T04:10:02.456Z,12.99
2022-09-12T04:11:04.187Z,12.98
2022-09-12T04:12:05.919Z,12.97
2022-09-12T04:13:07.683Z,12.96
2022-09-12T04:14:09.392Z,12.96
2022-09-12T04:15:11.134Z,12.94
2022-09-12T04:16:12.928Z,12.94
2022-09-12T04:17:14.593Z,12.93
2022-09-12T04:18:16.354Z,12.92
2022-09-12T04:19:18.100Z,12.92
2022-09-12T04:20:19.802Z,12.92
2022-09-12T04:21:21.537Z,12.9
2022-09-12T04:22:23.289Z,12.9
2022-09-12T04:23:25.034Z,12.88
2022-09-12T04:24:26.738Z,12.87
2022-09-12T04:25:28.471Z,12.85
2022-09-12T04:26:30.208Z,12.84
2022-09-12T04:27:31.942Z,12.83
2022-09-12T04:28:33.690Z,12.82
2022-09-12T04:29:35.402Z,12.81
2022-09-12T04:30:37.171Z,12.79
2022-09-12T04:31:38.870Z,12.78
2022-09-12T04:32:40.603Z,12.77
2022-09-12T04:33:42.370Z,12.75
2022-09-12T04:34:44.075Z,12.74
2022-09-12T04:35:46.027Z,12.74
2022-09-12T04:36:47.560Z,12.75
2022-09-12T04:37:49.515Z,12.75
2022-09-12T04:38:51.468Z,12.75
2022-09-12T04:39:52.795Z,12.75
2022-09-12T04:40:54.487Z,12.75
2022-09-12T04:41:56.232Z,12.76
2022-09-12T04:42:57.952Z,12.77
2022-09-12T04:43:59.716Z,12.77
2022-09-12T04:45:01.418Z,12.77
2022-09-12T04:46:04.261Z,12.78
2022-09-12T04:47:04.919Z,12.78
2022-09-12T04:48:06.625Z,12.8
2022-09-12T04:49:08.355Z,12.79
2022-09-12T04:50:10.100Z,12.8
2022-09-12T04:51:11.833Z,12.78
2022-09-12T04:52:13.595Z,12.78
2022-09-12T04:53:15.307Z,12.78
2022-09-12T04:54:17.100Z,12.78
2022-09-12T04:55:18.772Z,12.77
2022-09-12T04:56:20.508Z,12.77
2022-09-12T04:57:22.269Z,12.77
2022-09-12T04:58:23.969Z,12.76
2022-09-12T04:59:25.710Z,12.76
2022-09-12T05:00:27.452Z,12.76
2022-09-12T05:01:29.214Z,12.74
2022-09-12T05:02:30.973Z,12.75
2022-09-12T05:03:32.641Z,12.73
2022-09-12T05:04:34.398Z,12.72
2022-09-12T05:05:36.113Z,12.71
2022-09-12T05:06:37.852Z,12.71
2022-09-12T05:07:39.580Z,12.71
2022-09-12T05:08:41.334Z,12.7
2022-09-12T05:09:43.082Z,12.69
2022-09-12T05:10:44.650Z,12.68
2022-09-12T05:12:03.784Z,12.68
2022-09-12T05:12:48.099Z,12.66
2022-09-12T05:13:49.873Z,12.66
2022-09-12T05:14:51.573Z,12.65
2022-09-12T05:15:53.298Z,12.64
2022-09-12T05:16:55.065Z,12.64
2022-09-12T05:17:56.766Z,12.64
2022-09-12T05:18:58.500Z,12.63
2022-09-12T05:20:00.243Z,12.63
2022-09-12T05:21:05.019Z,12.63
2022-09-12T05:22:03.712Z,12.62
2022-09-12T05:23:05.442Z,12.62
2022-09-12T05:24:07.186Z,12.62
2022-09-12T05:25:08.913Z,12.61
2022-09-12T05:26:10.643Z,12.61
2022-09-12T05:27:12.387Z,12.62
2022-09-12T05:28:14.114Z,12.62
2022-09-12T05:29:15.858Z,12.62
2022-09-12T05:30:17.592Z,12.62
2022-09-12T05:31:19.319Z,12.62
2022-09-12T05:32:21.084Z,12.62
2022-09-12T05:33:25.070Z,12.63
2022-09-12T05:34:24.547Z,12.63
2022-09-12T05:35:26.265Z,12.63
2022-09-12T05:36:27.993Z,12.64
2022-09-12T05:37:29.714Z,12.64
2022-09-12T05:38:31.590Z,12.65
2022-09-12T05:39:33.223Z,12.65
2022-09-12T05:40:34.957Z,12.66
2022-09-12T05:41:36.665Z,12.67
2022-09-12T05:42:38.400Z,12.68
2022-09-12T05:43:40.167Z,12.68
2022-09-12T05:44:41.897Z,12.69
2022-09-12T05:45:44.290Z,12.7
2022-09-12T05:46:45.892Z,12.7
2022-09-12T05:47:47.357Z,12.73
2022-09-12T05:48:52.525Z,12.73
2022-09-12T05:49:50.539Z,12.74
2022-09-12T05:50:52.279Z,12.75
2022-09-12T05:51:54.003Z,12.76
2022-09-12T05:52:55.745Z,12.78
2022-09-12T05:53:57.494Z,12.79
2022-09-12T05:54:59.235Z,12.8
2022-09-12T05:56:00.972Z,12.81
2022-09-12T05:57:02.674Z,12.83
2022-09-12T05:58:04.429Z,12.84
2022-09-12T05:59:06.159Z,12.86
2022-09-12T06:00:07.885Z,12.86
2022-09-12T06:01:09.705Z,12.88
2022-09-12T06:02:11.415Z,12.89
2022-09-12T06:03:13.088Z,12.9
2022-09-12T06:04:14.814Z,12.91
2022-09-12T06:05:16.609Z,12.92
2022-09-12T06:06:18.322Z,12.93
2022-09-12T06:07:20.027Z,12.95
2022-09-12T06:08:21.769Z,12.95
2022-09-12T06:09:23.703Z,12.97
2022-09-12T06:10:25.233Z,12.99
2022-09-12T06:11:26.984Z,13
2022-09-12T06:12:28.706Z,13.02
2022-09-12T06:13:30.429Z,13.03
2022-09-12T06:14:32.199Z,13.05
2022-09-12T06:15:34.114Z,13.06
2022-09-12T06:16:35.702Z,13.08
2022-09-12T06:17:37.394Z,13.1
2022-09-12T06:18:39.109Z,13.12
2022-09-12T06:19:40.864Z,13.13
2022-09-12T06:20:42.584Z,13.16
2022-09-12T06:21:44.321Z,13.17
2022-09-12T06:22:46.052Z,13.19
2022-09-12T06:23:47.778Z,13.2
2022-09-12T06:24:49.517Z,13.22
2022-09-12T06:25:51.286Z,13.24
2022-09-12T06:26:52.998Z,13.26
2022-09-12T06:27:54.742Z,13.29
2022-09-12T06:28:56.465Z,13.3
2022-09-12T06:29:58.186Z,13.32
2022-09-12T06:30:59.954Z,13.34
2022-09-12T06:32:01.672Z,13.37
2022-09-12T06:33:03.416Z,13.38
2022-09-12T06:34:05.134Z,13.41
2022-09-12T06:35:06.849Z,13.44
2022-09-12T06:36:12.180Z,13.47
2022-09-12T06:37:10.327Z,13.5
2022-09-12T06:38:12.109Z,13.52
2022-09-12T06:39:13.795Z,13.56
2022-09-12T06:40:15.597Z,13.57
2022-09-12T06:41:17.263Z,13.59
2022-09-12T06:42:19.420Z,13.62
2022-09-12T06:43:20.732Z,13.65
2022-09-12T06:44:22.490Z,13.67
2022-09-12T06:45:24.196Z,13.7
2022-09-12T06:46:25.940Z,13.73
2022-09-12T06:47:27.701Z,13.77
2022-09-12T06:48:29.441Z,13.79
2022-09-12T06:49:31.144Z,13.82
2022-09-12T06:50:32.894Z,13.85
2022-09-12T06:51:34.643Z,13.88
2022-09-12T06:52:36.358Z,13.91
2022-09-12T06:53:38.097Z,13.94
2022-09-12T06:54:39.829Z,13.96
2022-09-12T06:55:41.598Z,13.99
2022-09-12T06:56:43.270Z,14.03
2022-09-12T06:57:45.034Z,14.06
2022-09-12T06:58:46.853Z,14.1
2022-09-12T06:59:48.494Z,14.14
2022-09-12T07:00:50.261Z,14.17
2022-09-12T07:01:52.042Z,14.22
2022-09-12T07:02:53.726Z,14.25
2022-09-12T07:03:55.447Z,14.29
2022-09-12T07:04:57.174Z,14.32
2022-09-12T07:05:58.916Z,14.36
2022-09-12T07:07:00.639Z,14.41
2022-09-12T07:08:02.403Z,14.45
2022-09-12T07:09:04.093Z,14.5
2022-09-12T07:10:05.852Z,14.56
2022-09-12T07:11:07.568Z,14.61
2022-09-12T07:12:09.307Z,14.66
2022-09-12T07:13:11.034Z,14.73
2022-09-12T07:14:12.771Z,14.79
2022-09-12T07:15:14.538Z,14.86
2022-09-12T07:16:19.668Z,14.93
2022-09-12T07:17:17.976Z,14.99
2022-09-12T07:18:19.720Z,15.07
2022-09-12T07:19:21.451Z,15.13
2022-09-12T07:20:23.225Z,15.18
2022-09-12T07:21:24.918Z,15.25
2022-09-12T07:22:26.647Z,15.31
2022-09-12T07:23:28.381Z,15.36
2022-09-12T07:24:30.153Z,15.41
2022-09-12T07:25:31.861Z,15.46
2022-09-12T07:26:33.590Z,15.51
2022-09-12T07:27:35.324Z,15.55
2022-09-12T07:28:37.075Z,15.59
2022-09-12T07:29:38.805Z,15.62
2022-09-12T07:30:40.590Z,15.65
2022-09-12T07:31:42.354Z,15.7
2022-09-12T07:32:44.000Z,15.74
2022-09-12T07:33:45.941Z,15.77
2022-09-12T07:34:47.467Z,15.81
2022-09-12T07:35:49.223Z,15.86
2022-09-12T07:36:50.928Z,15.9
2022-09-12T07:37:52.671Z,15.94
2022-09-12T07:38:57.243Z,16.01
2022-09-12T07:39:56.171Z,16.07
2022-09-12T07:40:57.897Z,16.14
2022-09-12T07:41:59.608Z,16.2
2022-09-12T07:43:01.342Z,16.27
2022-09-12T07:44:03.077Z,16.32
2022-09-12T07:45:04.815Z,16.38
2022-09-12T07:46:06.598Z,16.44
2022-09-12T07:47:08.285Z,16.49
2022-09-12T07:48:10.070Z,16.55
2022-09-12T07:49:11.769Z,16.6
2022-09-12T07:50:13.501Z,16.66
2022-09-12T07:51:15.243Z,16.71
2022-09-12T07:52:16.963Z,16.78
2022-09-12T07:53:18.703Z,16.82
2022-09-12T07:54:20.415Z,16.87
2022-09-12T07:55:22.164Z,16.91
2022-09-12T07:56:28.796Z,16.94
2022-09-12T07:57:25.651Z,17.01
2022-09-12T07:58:27.360Z,17.06
2022-09-12T07:59:48.889Z,17.1
2022-09-12T08:00:30.839Z,17.13
2022-09-12T08:01:32.678Z,17.15
2022-09-12T08:02:34.375Z,17.18
2022-09-12T08:03:36.127Z,17.22
2022-09-12T08:04:37.783Z,17.25
2022-09-12T08:05:39.549Z,17.3
2022-09-12T08:06:41.258Z,17.35
2022-09-12T08:07:43.014Z,17.39
2022-09-12T08:08:44.694Z,17.43
2022-09-12T08:09:46.448Z,17.48
2022-09-12T08:10:48.234Z,17.53
2022-09-12T08:11:49.917Z,17.56
2022-09-12T08:12:51.655Z,17.59
2022-09-12T08:13:55.625Z,17.63
2022-09-12T08:14:55.123Z,17.7
2022-09-12T08:15:56.917Z,17.75
2022-09-12T08:16:58.605Z,17.82
2022-09-12T08:18:00.357Z,17.88
2022-09-12T08:19:02.109Z,17.94
2022-09-12T08:20:03.800Z,18.01
2022-09-12T08:21:05.530Z,18.09
2022-09-12T08:22:07.269Z,18.17
2022-09-12T08:23:09.028Z,18.22
2022-09-12T08:24:10.744Z,18.29
2022-09-12T08:25:12.492Z,18.34
2022-09-12T08:26:14.213Z,18.39
2022-09-12T08:27:15.961Z,18.47
2022-09-12T08:28:17.699Z,18.55
2022-09-12T08:29:19.402Z,18.64
2022-09-12T08:30:21.247Z,18.71
2022-09-12T08:31:22.892Z,18.74
2022-09-12T08:32:24.658Z,18.78
2022-09-12T08:33:26.387Z,18.82
2022-09-12T08:34:28.079Z,18.89
2022-09-12T08:35:29.812Z,18.96
2022-09-12T08:36:31.560Z,19.03
2022-09-12T08:37:33.305Z,19.12
2022-09-12T08:38:35.007Z,19.19
2022-09-12T08:39:36.754Z,19.24
2022-09-12T08:40:38.481Z,19.27
2022-09-12T08:41:40.277Z,19.32
2022-09-12T08:42:41.986Z,19.36
2022-09-12T08:43:43.700Z,19.4
2022-09-12T08:44:45.423Z,19.42
2022-09-12T08:45:47.232Z,19.42
2022-09-12T08:46:48.900Z,19.44
2022-09-12T08:47:50.657Z,19.46
2022-09-12T08:48:52.388Z,19.48
2022-09-12T08:49:54.128Z,19.5
2022-09-12T08:50:55.841Z,19.52
2022-09-12T08:51:57.584Z,19.51
2022-09-12T08:52:59.326Z,19.52
2022-09-12T08:54:01.043Z,19.52
2022-09-12T08:55:02.813Z,19.5
2022-09-12T08:56:04.525Z,19.52
2022-09-12T08:57:06.254Z,19.5
2022-09-12T08:58:08.020Z,19.53
2022-09-12T08:59:09.719Z,19.55
2022-09-12T09:00:11.521Z,19.54
2022-09-12T09:01:13.330Z,19.57
2022-09-12T09:02:15.025Z,19.61
2022-09-12T09:03:16.690Z,19.62
2022-09-12T09:04:18.436Z,19.62
2022-09-12T09:05:20.156Z,19.65
2022-09-12T09:06:21.886Z,19.68
2022-09-12T09:07:23.636Z,19.71
2022-09-12T09:08:25.414Z,19.72
2022-09-12T09:09:28.089Z,19.73
2022-09-12T09:10:28.818Z,19.76
2022-09-12T09:11:30.567Z,19.78
2022-09-12T09:12:32.294Z,19.78
2022-09-12T09:13:34.016Z,19.79
2022-09-12T09:14:35.753Z,19.79
2022-09-12T09:15:37.502Z,19.81
2022-09-12T09:16:39.230Z,19.82
2022-09-12T09:17:40.977Z,19.86
2022-09-12T09:18:42.690Z,19.89
2022-09-12T09:19:48.808Z,19.92
2022-09-12T09:20:46.155Z,19.93
2022-09-12T09:21:47.896Z,19.93
2022-09-12T09:22:49.632Z,19.97
2022-09-12T09:23:51.365Z,19.97
2022-09-12T09:24:53.119Z,20
2022-09-12T09:25:54.837Z,20.03
2022-09-12T09:26:56.582Z,20.04
2022-09-12T09:27:58.317Z,20.05
2022-09-12T09:29:00.080Z,20.08
2022-09-12T09:30:01.796Z,20.11
2022-09-12T09:31:04.590Z,20.13
2022-09-12T09:32:05.241Z,20.15
2022-09-12T09:33:06.990Z,20.17
2022-09-12T09:34:08.709Z,20.18
2022-09-12T09:35:10.451Z,20.19
2022-09-12T09:36:12.187Z,20.2
2022-09-12T09:37:13.911Z,20.18
2022-09-12T09:38:15.642Z,20.17
2022-09-12T09:39:17.376Z,20.17
2022-09-12T09:40:19.235Z,20.18
2022-09-12T09:41:20.852Z,20.19
2022-09-12T09:42:22.586Z,20.22
2022-09-12T09:43:24.318Z,20.24
2022-09-12T09:44:26.051Z,20.25
2022-09-12T09:45:27.789Z,20.27
2022-09-12T09:46:29.577Z,20.28
2022-09-12T09:47:31.243Z,20.31
2022-09-12T09:48:32.980Z,20.34
2022-09-12T09:49:34.725Z,20.36
2022-09-12T09:50:36.459Z,20.39
2022-09-12T09:51:38.183Z,20.39
2022-09-12T09:52:39.915Z,20.42
2022-09-12T09:53:41.653Z,20.43
2022-09-12T09:54:43.391Z,20.44
2022-09-12T09:55:45.138Z,20.46
2022-09-12T09:56:46.857Z,20.48
2022-09-12T09:57:48.594Z,20.51
2022-09-12T09:58:50.325Z,20.54
2022-09-12T09:59:52.094Z,20.55
2022-09-12T10:00:56.739Z,20.59
2022-09-12T10:01:55.550Z,20.61
2022-09-12T10:02:57.323Z,20.63
2022-09-12T10:03:59.019Z,20.66
2022-09-12T10:05:00.752Z,20.69
2022-09-12T10:06:03.473Z,20.72
2022-09-12T10:07:04.220Z,20.7
2022-09-12T10:08:05.978Z,20.74
2022-09-12T10:09:07.779Z,20.76
2022-09-12T10:10:09.433Z,20.75
2022-09-12T10:11:11.183Z,20.75
2022-09-12T10:12:12.882Z,20.75
2022-09-12T10:13:14.607Z,20.75
2022-09-12T10:14:16.335Z,20.76
2022-09-12T10:15:18.067Z,20.77
2022-09-12T10:16:19.828Z,20.8
2022-09-12T10:17:21.570Z,20.83
2022-09-12T10:18:23.336Z,20.85
2022-09-12T10:19:25.007Z,20.89
2022-09-12T10:20:26.744Z,20.9
2022-09-12T10:21:28.476Z,20.93
2022-09-12T10:22:30.217Z,20.95
2022-09-12T10:23:31.949Z,20.97
2022-09-12T10:24:33.676Z,21
2022-09-12T10:25:35.404Z,21.04
2022-09-12T10:26:37.159Z,21.06
2022-09-12T10:27:38.889Z,21.1
2022-09-12T10:28:42.453Z,21.14
2022-09-12T10:29:42.361Z,21.19
2022-09-12T10:30:44.237Z,21.25
2022-09-12T10:31:45.845Z,21.29
2022-09-12T10:32:47.574Z,21.32
2022-09-12T10:33:49.322Z,21.32
2022-09-12T10:34:51.047Z,21.33
2022-09-12T10:35:52.774Z,21.36
2022-09-12T10:36:54.496Z,21.36
2022-09-12T10:37:56.232Z,21.38
2022-09-12T10:38:57.965Z,21.4
2022-09-12T10:39:59.713Z,21.42
2022-09-12T10:41:08.667Z,21.44
2022-09-12T10:42:03.167Z,21.46
2022-09-12T10:43:04.909Z,21.49
2022-09-12T10:44:06.646Z,21.52
2022-09-12T10:45:08.361Z,21.53
2022-09-12T10:46:10.187Z,21.55
2022-09-12T10:47:11.830Z,21.57
2022-09-12T10:48:13.593Z,21.58
2022-09-12T10:49:15.314Z,21.61
2022-09-12T10:50:22.603Z,21.64
2022-09-12T10:51:18.772Z,21.65
2022-09-12T10:52:20.507Z,21.69
2022-09-12T10:53:22.257Z,21.73
2022-09-12T10:54:23.973Z,21.77
2022-09-12T10:55:25.710Z,21.81
2022-09-12T10:56:27.442Z,21.85
2022-09-12T10:57:29.184Z,21.88
2022-09-12T10:58:30.932Z,21.91
2022-09-12T10:59:32.650Z,21.94
2022-09-12T11:00:34.489Z,21.96
2022-09-12T11:01:36.286Z,22
2022-09-12T11:02:37.889Z,22.02
2022-09-12T11:03:39.600Z,22.04
2022-09-12T11:04:41.322Z,22.07
2022-09-12T11:05:43.078Z,22.1
2022-09-12T11:06:44.798Z,22.14
2022-09-12T11:07:46.568Z,22.17
2022-09-12T11:08:48.288Z,22.18
2022-09-12T11:09:50.010Z,22.23
2022-09-12T11:10:51.744Z,22.26
2022-09-12T11:11:53.481Z,22.3
2022-09-12T11:12:55.225Z,22.33
2022-09-12T11:13:56.933Z,22.37
2022-09-12T11:14:58.661Z,22.4
2022-09-12T11:16:00.494Z,22.41
2022-09-12T11:17:02.135Z,22.44
2022-09-12T11:18:03.892Z,22.45
2022-09-12T11:19:05.603Z,22.43
2022-09-12T11:20:07.340Z,22.43
2022-09-12T11:21:09.073Z,22.39
2022-09-12T11:22:10.802Z,22.38
2022-09-12T11:23:12.562Z,22.39
2022-09-12T11:24:14.284Z,22.39
2022-09-12T11:25:16.029Z,22.4
2022-09-12T11:26:17.742Z,22.42
2022-09-12T11:27:19.466Z,22.43
2022-09-12T11:28:21.230Z,22.44
2022-09-12T11:29:22.960Z,22.45
2022-09-12T11:30:24.698Z,22.47
2022-09-12T11:31:26.438Z,22.5
2022-09-12T11:32:28.189Z,22.55
2022-09-12T11:33:29.948Z,22.57
2022-09-12T11:34:31.632Z,22.61
2022-09-12T11:35:33.386Z,22.63
2022-09-12T11:36:35.091Z,22.65
2022-09-12T11:37:36.823Z,22.64
2022-09-12T11:38:38.581Z,22.66
2022-09-12T11:39:40.383Z,22.66
2022-09-12T11:40:42.024Z,22.67
2022-09-12T11:41:43.754Z,22.68
2022-09-12T11:42:45.509Z,22.69
2022-09-12T11:43:47.362Z,22.7
2022-09-12T11:44:48.972Z,22.72
2022-09-12T11:45:50.740Z,22.73
2022-09-12T11:46:52.456Z,22.76
2022-09-12T11:47:54.193Z,22.78
2022-09-12T11:48:55.903Z,22.82
2022-09-12T11:49:57.627Z,22.85
2022-09-12T11:50:59.368Z,22.89
2022-09-12T11:52:01.102Z,22.87
2022-09-12T11:53:02.855Z,22.84
2022-09-12T11:54:04.561Z,22.82
2022-09-12T11:55:06.305Z,22.8
2022-09-12T11:56:08.053Z,22.77
2022-09-12T11:57:09.782Z,22.72
2022-09-12T11:58:11.525Z,22.71
2022-09-12T11:59:13.280Z,22.69
2022-09-12T12:00:14.999Z,22.68
2022-09-12T12:01:16.815Z,22.62
2022-09-12T12:02:18.520Z,22.62
2022-09-12T12:03:20.285Z,22.59
2022-09-12T12:04:21.940Z,22.58
2022-09-12T12:05:23.657Z,22.56
2022-09-12T12:06:25.403Z,22.56
2022-09-12T12:07:27.146Z,22.56
2022-09-12T12:08:28.893Z,22.57
2022-09-12T12:09:30.604Z,22.59
2022-09-12T12:10:32.387Z,22.61
2022-09-12T12:11:34.078Z,22.63
2022-09-12T12:12:35.848Z,22.64
2022-09-12T12:13:37.544Z,22.66
2022-09-12T12:14:39.265Z,22.67
2022-09-12T12:15:41.007Z,22.67
2022-09-12T12:16:42.734Z,22.65
2022-09-12T12:17:44.460Z,22.64
2022-09-12T12:18:46.371Z,22.64
2022-09-12T12:19:47.937Z,22.64
2022-09-12T12:20:49.667Z,22.64
2022-09-12T12:21:51.406Z,22.63
2022-09-12T12:22:53.169Z,22.64
2022-09-12T12:23:54.881Z,22.66
2022-09-12T12:24:56.608Z,22.68
2022-09-12T12:25:58.341Z,22.7
2022-09-12T12:27:00.124Z,22.72
2022-09-12T12:28:02.013Z,22.75
2022-09-12T12:29:03.547Z,22.76
2022-09-12T12:30:05.308Z,22.78
2022-09-12T12:31:07.125Z,22.81
2022-09-12T12:32:08.780Z,22.86
2022-09-12T12:33:10.528Z,22.89
2022-09-12T12:34:12.216Z,22.93
2022-09-12T12:35:13.966Z,22.96
2022-09-12T12:36:15.718Z,22.98
2022-09-12T12:37:17.412Z,23
2022-09-12T12:38:19.170Z,23.01
2022-09-12T12:39:20.890Z,23.03
2022-09-12T12:40:22.666Z,23.04
2022-09-12T12:41:24.351Z,23.07
2022-09-12T12:42:26.135Z,23.09
2022-09-12T12:43:27.840Z,23.12
2022-09-12T12:44:29.556Z,23.15
2022-09-12T12:45:31.288Z,23.19
2022-09-12T12:46:33.130Z,23.22
2022-09-12T12:47:34.747Z,23.24
2022-09-12T12:48:36.507Z,23.25
2022-09-12T12:49:38.217Z,23.26
2022-09-12T12:50:39.956Z,23.24
2022-09-12T12:51:41.678Z,23.25
2022-09-12T12:52:43.421Z,23.23
2022-09-12T12:53:45.215Z,23.23
2022-09-12T12:54:46.884Z,23.23
2022-09-12T12:55:48.640Z,23.24
2022-09-12T12:56:50.347Z,23.24
2022-09-12T12:57:52.093Z,23.25
2022-09-12T12:58:53.819Z,23.24
2022-09-12T12:59:55.550Z,23.24
2022-09-12T13:00:57.317Z,23.25
2022-09-12T13:01:59.184Z,23.25
2022-09-12T13:03:00.776Z,23.23
2022-09-12T13:04:02.501Z,23.25
2022-09-12T13:05:04.258Z,23.25
2022-09-12T13:06:06.023Z,23.26
2022-09-12T13:07:08.475Z,23.27
2022-09-12T13:08:09.436Z,23.28
2022-09-12T13:09:11.177Z,23.29
2022-09-12T13:10:12.925Z,23.31
2022-09-12T13:11:14.654Z,23.32
2022-09-12T13:12:16.381Z,23.32
2022-09-12T13:13:18.115Z,23.32
2022-09-12T13:14:19.833Z,23.29
2022-09-12T13:15:21.567Z,23.24
2022-09-12T13:16:23.338Z,23.21
2022-09-12T13:17:25.048Z,23.18